Time;durP1;ratioP1;P1;durP2;ratioP2;P2;SDS_P1;SDS_P2;PMS_P1;PMS_P2;Temp;Humidity;BMP_temperature;BMP_pressure;BME280_temperature;BME280_humidity;BME280_pressure;Samples;Min_cycle;Max_cycle;Signal;HPM_P1;HPM_P2
2022/02/11 00:01:18;;;;;;;12.68;4.32;;;;;;;1.22;100.00;101185.84;5034297;28;20032;-87
2022/02/11 00:08:51;;;;;;;11.63;3.53;;;;;;;1.23;100.00;101205.94;5034704;28;20403;-86
2022/02/11 00:11:29;;;;;;;13.85;4.47;;;;;;;1.19;100.00;101209.66;5034746;28;20039;-87
2022/02/11 00:13:54;;;;;;;19.15;3.53;;;;;;;1.19;100.00;101206.19;5034520;28;20091;-86
2022/02/11 00:16:19;;;;;;;26.53;4.87;;;;;;;1.12;100.00;101210.13;5034937;28;20032;-86
2022/02/11 00:18:45;;;;;;;19.40;6.60;;;;;;;1.17;100.00;101198.41;5018506;28;20275;-86
2022/02/11 00:21:11;;;;;;;25.33;5.73;;;;;;;1.32;100.00;101214.22;5018464;28;20502;-86
2022/02/11 00:23:39;;;;;;;20.98;6.22;;;;;;;1.22;100.00;101203.41;5019548;28;20355;-87
2022/02/11 00:26:04;;;;;;;19.98;4.05;;;;;;;1.22;100.00;101206.88;5018981;28;20060;-86
2022/02/11 00:32:00;;;;;;;19.90;4.13;;;;;;;1.25;100.00;101206.69;4994822;28;20052;-87
2022/02/11 00:34:36;;;;;;;19.73;4.87;;;;;;;1.17;100.00;101197.53;5017798;28;20200;-86
2022/02/11 00:37:12;;;;;;;20.30;4.45;;;;;;;1.25;100.00;101201.44;5035180;28;20275;-86
2022/02/11 00:45:33;;;;;;;19.60;5.07;;;;;;;1.02;100.00;101187.00;5034449;28;20494;-86
2022/02/11 01:04:03;;;;;;;12.60;3.78;;;;;;;1.10;100.00;101207.59;5052793;28;20033;-83
2022/02/11 01:06:30;;;;;;;26.38;5.55;;;;;;;1.05;100.00;101199.13;5035797;28;20044;-83
2022/02/11 01:08:56;;;;;;;24.17;4.78;;;;;;;1.14;100.00;101203.00;5053422;28;20037;-82
2022/02/11 01:11:32;;;;;;;21.05;5.03;;;;;;;1.05;100.00;101193.84;5019120;28;20036;-85
2022/02/11 01:13:57;;;;;;;15.98;5.25;;;;;;;1.13;100.00;101203.94;5035434;28;20040;-85
2022/02/11 01:16:32;;;;;;;23.30;4.67;;;;;;;1.14;100.00;101197.75;5019173;28;20128;-84
2022/02/11 01:19:07;;;;;;;35.00;4.82;;;;;;;1.07;100.00;101202.50;5019438;28;20123;-84
2022/02/11 01:21:42;;;;;;;20.77;4.45;;;;;;;1.11;100.00;101200.56;5036176;28;20033;-85
2022/02/11 01:24:49;;;;;;;16.88;4.00;;;;;;;1.04;100.00;101181.66;5018878;28;20063;-86
2022/02/11 01:27:16;;;;;;;17.88;4.70;;;;;;;1.07;100.00;101192.00;5035703;28;20049;-84
2022/02/11 01:35:15;;;;;;;36.53;6.85;;;;;;;1.10;100.00;101185.69;5036436;28;20043;-85
2022/02/11 01:45:32;;;;;;;11.73;3.85;;;;;;;1.01;100.00;101174.81;5037586;28;20029;-85
2022/02/11 02:01:32;;;;;;;19.02;4.55;;;;;;;0.96;100.00;101160.22;5031350;28;20519;-84
2022/02/11 02:15:34;;;;;;;;;;;;;;;0.94;100.00;101164.75;4978235;28;20060;-85
2022/02/11 02:18:54;;;;;;;10.27;4.25;;;;;;;0.80;100.00;101153.25;5047336;28;19919;-84
2022/02/11 02:23:41;;;;;;;27.23;7.68;;;;;;;0.79;100.00;101156.78;5048511;28;20056;-84
2022/02/11 02:50:49;;;;;;;24.17;6.20;;;;;;;0.72;100.00;101157.25;5034612;28;20033;-85
2022/02/11 02:58:58;;;;;;;23.67;5.53;;;;;;;0.66;100.00;101161.09;5034230;28;20040;-85
2022/02/11 03:16:02;;;;;;;23.10;4.20;;;;;;;0.53;100.00;101144.31;5033484;28;20041;-86
2022/02/11 03:35:01;;;;;;;20.35;4.60;;;;;;;0.52;100.00;101137.41;5033297;28;20116;-82
2022/02/11 04:23:56;;;;;;;14.15;5.00;;;;;;;0.17;100.00;101116.59;5034228;28;20083;-83
2022/02/11 04:26:56;;;;;;;26.30;5.18;;;;;;;0.16;100.00;101118.38;5034365;28;20441;-84
2022/02/11 04:56:03;;;;;;;14.38;3.97;;;;;;;0.03;100.00;101134.91;5036324;28;20035;-85
2022/02/11 05:01:14;;;;;;;37.03;7.40;;;;;;;-0.06;100.00;101131.84;5033744;28;20040;-84
2022/02/11 05:03:39;;;;;;;20.60;4.65;;;;;;;-0.06;100.00;101131.00;5035971;28;20047;-85
2022/02/11 05:06:04;;;;;;;33.08;5.05;;;;;;;-0.05;100.00;101143.19;5034323;28;20025;-84
2022/02/11 05:08:30;;;;;;;27.93;6.23;;;;;;;-0.12;100.00;101131.34;5018026;28;20445;-87
2022/02/11 05:10:57;;;;;;;19.35;5.13;;;;;;;-0.05;100.00;101138.81;5016151;28;20044;-85
2022/02/11 05:13:23;;;;;;;25.90;6.25;;;;;;;-0.12;100.00;101134.81;5018112;28;20513;-81
2022/02/11 05:15:49;;;;;;;23.40;5.43;;;;;;;0.03;100.00;101142.78;5017452;28;20069;-84
2022/02/11 05:18:15;;;;;;;20.30;5.00;;;;;;;-0.04;100.00;101137.88;5015751;28;20414;-86
2022/02/11 05:20:43;;;;;;;15.15;4.88;;;;;;;-0.12;100.00;101119.06;5050147;28;20086;-85
2022/02/11 05:23:12;;;;;;;16.85;4.88;;;;;;;-0.01;100.00;101134.22;5016511;28;20072;-85
2022/02/11 05:25:39;;;;;;;24.00;8.55;;;;;;;-0.09;100.00;101133.81;5016252;28;20054;-83
2022/02/11 05:28:06;;;;;;;21.05;5.68;;;;;;;-0.10;100.00;101142.59;5031195;28;20044;-85
2022/02/11 05:30:32;;;;;;;23.30;5.57;;;;;;;-0.12;100.00;101147.94;5015819;28;20513;-84
2022/02/11 05:32:59;;;;;;;;;;;;;;;-0.05;100.00;101157.19;5015621;28;20024;-83
2022/02/11 05:35:25;;;;;;;18.85;5.18;;;;;;;-0.05;100.00;101159.81;5015011;28;19912;-83
2022/02/11 05:37:50;;;;;;;21.92;4.72;;;;;;;-0.15;100.00;101155.97;5015868;28;20589;-86
2022/02/11 05:40:16;;;;;;;23.27;4.95;;;;;;;-0.12;100.00;101170.72;5015277;28;20040;-83
2022/02/11 05:42:42;;;;;;;25.50;5.57;;;;;;;-0.03;100.00;101178.91;5032299;28;20100;-85
2022/02/11 05:45:08;;;;;;;15.80;5.93;;;;;;;-0.23;100.00;101172.16;5015094;28;20080;-81
2022/02/11 05:47:37;;;;;;;15.07;4.63;;;;;;;-0.29;100.00;101169.84;5015495;28;20035;-84
2022/02/11 05:50:04;;;;;;;14.75;4.75;;;;;;;-0.34;100.00;101157.91;5015696;28;20028;-83
2022/02/11 05:52:31;;;;;;;22.17;6.40;;;;;;;-0.30;100.00;101160.28;5015487;28;20087;-83
2022/02/11 05:54:56;;;;;;;29.00;6.63;;;;;;;-0.29;100.00;101161.13;5015193;28;20080;-83
2022/02/11 05:57:22;;;;;;;20.15;5.20;;;;;;;-0.38;100.00;101145.88;5032099;28;20450;-84
2022/02/11 05:59:47;;;;;;;17.80;5.57;;;;;;;-0.34;100.00;101160.53;5016260;28;20032;-83
2022/02/11 06:02:12;;;;;;;40.08;6.53;;;;;;;-0.34;100.00;101156.13;5022568;28;20017;-79
2022/02/11 06:04:38;;;;;;;19.30;7.28;;;;;;;-0.32;100.00;101170.00;5042658;28;20033;-78
2022/02/11 06:07:03;;;;;;;27.55;6.28;;;;;;;-0.31;100.00;101178.72;5052179;28;20136;-82
2022/02/11 06:09:29;;;;;;;20.85;5.85;;;;;;;-0.45;100.00;101188.16;5022728;28;20025;-84
2022/02/11 06:11:54;;;;;;;24.27;5.97;;;;;;;-0.57;100.00;101183.56;5023624;28;20502;-81
2022/02/11 06:14:19;;;;;;;18.43;5.73;;;;;;;-0.67;100.00;101180.59;5021902;28;20648;-84
2022/02/11 06:16:45;;;;;;;30.13;7.88;;;;;;;-0.72;100.00;101182.59;5023131;28;20409;-85
2022/02/11 06:19:10;;;;;;;23.97;6.67;;;;;;;-0.75;100.00;101174.91;5023573;28;20036;-83
2022/02/11 06:21:36;;;;;;;17.58;5.70;;;;;;;-0.71;100.00;101193.94;5039794;28;20262;-85
2022/02/11 06:24:01;;;;;;;33.67;8.68;;;;;;;-0.78;100.00;101184.69;5021546;28;20503;-86
2022/02/11 06:26:27;;;;;;;27.83;5.82;;;;;;;-0.78;100.00;101197.81;5021101;28;20045;-83
2022/02/11 06:28:53;;;;;;;22.10;6.18;;;;;;;-0.92;100.00;101194.09;5022899;28;20324;-84
2022/02/11 06:31:18;;;;;;;23.42;6.10;;;;;;;-1.07;100.00;101200.13;5022692;28;20059;-83
2022/02/11 06:33:45;;;;;;;18.15;6.55;;;;;;;-1.11;100.00;101204.66;5023292;28;20496;-85
2022/02/11 06:36:11;;;;;;;25.25;5.88;;;;;;;-1.22;100.00;101204.34;5021359;28;20060;-84
2022/02/11 06:38:36;;;;;;;31.48;6.75;;;;;;;-1.30;100.00;101199.47;5032123;28;20041;-85
2022/02/11 06:41:02;;;;;;;14.43;6.95;;;;;;;-1.43;100.00;101193.13;5034753;28;20032;-86
2022/02/11 06:43:28;;;;;;;21.42;6.68;;;;;;;-1.44;100.00;101206.34;5015814;28;20040;-81
2022/02/11 06:45:53;;;;;;;19.77;7.57;;;;;;;-1.44;100.00;101222.03;5025073;28;20490;-80
2022/02/11 06:48:23;;;;;;;29.00;6.70;;;;;;;-1.53;100.00;101215.47;5021297;28;20489;-82
2022/02/11 06:50:49;;;;;;;25.42;6.45;;;;;;;-1.57;100.00;101216.53;5003568;28;20052;-87
2022/02/11 06:53:15;;;;;;;15.80;6.65;;;;;;;-1.63;100.00;101227.31;5015028;28;20026;-87
2022/02/11 06:55:40;;;;;;;16.85;6.25;;;;;;;-1.71;100.00;101218.06;4998478;28;20048;-86
2022/02/11 06:58:06;;;;;;;28.15;7.97;;;;;;;-1.74;100.00;101226.03;5015361;28;20040;-83
2022/02/11 07:00:32;;;;;;;25.00;8.23;;;;;;;-1.73;100.00;101238.22;4998964;28;20064;-82
2022/02/11 07:02:57;;;;;;;22.13;8.27;;;;;;;-1.71;100.00;101241.63;4999253;28;20700;-83
2022/02/11 07:05:24;;;;;;;15.50;7.38;;;;;;;-1.73;100.00;101238.22;4998400;28;20041;-80
2022/02/11 07:07:50;;;;;;;22.00;7.78;;;;;;;-1.71;100.00;101239.00;5014538;28;20037;-81
2022/02/11 07:10:15;;;;;;;26.35;7.30;;;;;;;-1.66;100.00;101251.88;5014236;28;20060;-83
2022/02/11 07:12:41;;;;;;;17.67;6.63;;;;;;;-1.60;100.00;101258.56;4998248;28;20042;-82
2022/02/11 07:15:07;;;;;;;22.90;8.07;;;;;;;-1.57;100.00;101264.53;4998296;28;20077;-83
2022/02/11 07:17:33;;;;;;;25.13;7.78;;;;;;;-1.59;100.00;101262.88;4997825;28;20117;-83
2022/02/11 07:19:59;;;;;;;17.45;5.90;;;;;;;-1.61;100.00;101259.50;4997903;28;20057;-80
2022/02/11 07:22:24;;;;;;;26.92;7.53;;;;;;;-1.58;100.00;101272.44;5015167;28;20435;-82
2022/02/11 07:24:51;;;;;;;23.73;6.85;;;;;;;-1.50;100.00;101286.91;4998512;28;20076;-83
2022/02/11 07:27:17;;;;;;;21.42;6.93;;;;;;;-1.40;100.00;101305.66;4998295;28;20041;-82
2022/02/11 07:29:42;;;;;;;16.13;6.80;;;;;;;-1.23;100.00;101314.47;5015349;28;20050;-83
2022/02/11 07:32:08;;;;;;;14.57;6.45;;;;;;;-1.02;100.00;101321.31;4998334;28;20475;-85
2022/02/11 07:34:33;;;;;;;13.30;5.32;;;;;;;-0.87;100.00;101323.19;4997809;28;20129;-79
2022/02/11 07:36:59;;;;;;;18.40;7.70;;;;;;;-0.71;100.00;101322.44;4997985;28;20041;-81
2022/02/11 07:39:25;;;;;;;22.60;6.75;;;;;;;-0.67;100.00;101318.72;4998217;28;20116;-81
2022/02/11 07:41:50;;;;;;;21.98;7.10;;;;;;;-0.67;100.00;101316.13;5031059;28;20505;-84
2022/02/11 07:44:16;;;;;;;23.52;7.95;;;;;;;-0.68;100.00;101307.41;5015345;28;20037;-85
2022/02/11 07:46:41;;;;;;;17.65;7.88;;;;;;;-0.73;100.00;101308.53;5021579;28;20040;-82
2022/02/11 07:49:07;;;;;;;29.35;8.68;;;;;;;-0.69;100.00;101315.34;5014686;28;20064;-82
2022/02/11 07:51:32;;;;;;;33.13;8.75;;;;;;;-0.57;100.00;101333.06;4998257;28;20033;-87
2022/02/11 07:53:58;;;;;;;22.90;8.07;;;;;;;-0.48;100.00;101335.25;4997836;28;20025;-85
2022/02/11 07:56:24;;;;;;;;;;;;;;;-0.31;100.00;101341.41;4998554;28;20042;-83
2022/02/11 07:58:51;;;;;;;21.70;8.25;;;;;;;-0.12;100.00;101351.81;4998231;28;19920;-82
2022/02/11 08:01:19;;;;;;;22.20;8.52;;;;;;;-0.17;100.00;101344.19;5014498;28;20056;-83
2022/02/11 08:03:45;;;;;;;21.65;8.95;;;;;;;-0.06;100.00;101357.59;5013804;28;20029;-83
2022/02/11 08:06:11;;;;;;;29.50;11.38;;;;;;;-0.02;100.00;101353.91;5015019;28;20033;-87
2022/02/11 08:08:36;;;;;;;;;;;;;;;0.10;100.00;101375.19;4998845;28;20123;-88
2022/02/11 08:11:02;;;;;;;35.08;13.57;;;;;;;0.05;100.00;101374.56;4997905;28;19987;-85
2022/02/11 08:13:27;;;;;;;37.47;14.45;;;;;;;0.05;100.00;101366.69;5014451;28;20068;-84
2022/02/11 08:15:53;;;;;;;42.85;17.75;;;;;;;0.14;100.00;101374.09;5014825;28;20044;-81
2022/02/11 08:18:18;;;;;;;33.20;15.18;;;;;;;0.34;100.00;101384.41;4998046;28;20044;-83
2022/02/11 08:20:44;;;;;;;31.15;14.15;;;;;;;0.54;100.00;101385.97;5014195;28;20048;-83
2022/02/11 08:23:09;;;;;;;34.60;14.73;;;;;;;1.08;100.00;101398.81;4998415;28;20119;-85
2022/02/11 08:25:35;;;;;;;29.15;11.52;;;;;;;1.95;100.00;101413.19;4997589;28;20280;-86
2022/02/11 08:28:01;;;;;;;34.53;13.05;;;;;;;2.75;100.00;101433.75;4997619;28;20505;-83
2022/02/11 08:30:27;;;;;;;;;;;;;;;3.04;100.00;101432.88;4997976;28;20119;-83
2022/02/11 08:32:52;;;;;;;27.63;10.35;;;;;;;3.47;100.00;101424.84;5013971;28;20731;-83
2022/02/11 08:35:17;;;;;;;29.10;11.57;;;;;;;3.50;100.00;101395.59;4997462;28;20557;-83
2022/02/11 08:37:43;;;;;;;21.17;9.00;;;;;;;3.32;100.00;101380.00;4997839;28;20033;-80
2022/02/11 08:40:09;;;;;;;16.88;7.60;;;;;;;3.30;100.00;101355.53;4997562;28;20487;-80
2022/02/11 08:42:34;;;;;;;14.90;7.20;;;;;;;4.00;100.00;101363.16;5014279;28;20072;-83
2022/02/11 08:45:01;;;;;;;22.40;7.43;;;;;;;4.18;100.00;101354.91;4997389;28;20049;-85
2022/02/11 08:47:26;;;;;;;24.95;7.03;;;;;;;4.74;100.00;101338.66;4997708;28;20844;-84
2022/02/11 08:49:51;;;;;;;17.45;7.32;;;;;;;4.72;100.00;101307.00;4997883;28;20071;-83
2022/02/11 08:52:17;;;;;;;18.47;7.53;;;;;;;5.19;100.00;101286.78;5013304;28;20052;-83
2022/02/11 08:54:42;;;;;;;14.10;6.60;;;;;;;5.89;100.00;101267.34;4996654;28;20037;-84
2022/02/11 08:57:07;;;;;;;23.00;7.07;;;;;;;6.76;97.69;101230.34;4997226;28;20533;-83
2022/02/11 08:59:33;;;;;;;18.13;6.47;;;;;;;7.51;91.71;101174.56;4997584;28;20025;-80
2022/02/11 09:01:58;;;;;;;15.10;6.40;;;;;;;7.83;85.76;101068.94;4996998;28;20033;-80
2022/02/11 09:04:24;;;;;;;14.97;6.23;;;;;;;8.10;80.81;100942.47;4996786;28;20406;-82
2022/02/11 09:06:49;;;;;;;18.40;6.73;;;;;;;8.01;77.43;100826.31;4996785;28;20029;-83
2022/02/11 09:09:18;;;;;;;17.53;7.27;;;;;;;8.54;74.57;100764.53;4996708;28;20037;-84
2022/02/11 09:11:44;;;;;;;19.83;6.22;;;;;;;8.83;73.24;100753.72;4996474;28;20045;-80
2022/02/11 09:14:09;;;;;;;19.88;6.70;;;;;;;9.22;71.44;100716.09;4996007;28;20030;-84
2022/02/11 09:16:35;;;;;;;18.13;6.83;;;;;;;9.71;69.33;100681.78;4996557;28;20038;-84
2022/02/11 09:19:01;;;;;;;;;;;;;;;10.04;67.83;100649.91;4996678;28;20040;-84
2022/02/11 09:21:27;;;;;;;;;;;;;;;10.48;65.43;100561.66;5011835;28;19916;-85
2022/02/11 09:23:52;;;;;;;18.55;6.30;;;;;;;10.46;63.91;100520.94;5012262;28;20606;-82
2022/02/11 09:26:18;;;;;;;13.40;6.63;;;;;;;10.73;63.53;100542.97;4995843;28;20037;-80
2022/02/11 09:28:43;;;;;;;15.20;6.22;;;;;;;10.74;63.50;100555.31;4995844;28;20037;-82
2022/02/11 09:31:11;;;;;;;12.80;7.07;;;;;;;10.70;62.10;100493.41;5012239;28;20184;-83
2022/02/11 09:33:37;;;;;;;15.80;6.35;;;;;;;10.66;62.59;100521.44;5008876;28;20076;-78
2022/02/11 09:36:03;;;;;;;16.30;6.55;;;;;;;10.18;62.15;100463.56;5018784;28;20045;-79
2022/02/11 09:38:29;;;;;;;12.88;6.20;;;;;;;10.84;61.56;100515.06;5015834;28;20026;-83
2022/02/11 09:40:55;;;;;;;18.90;6.23;;;;;;;9.85;61.43;100375.53;5013633;28;20052;-84
2022/02/11 09:43:22;;;;;;;14.30;5.95;;;;;;;9.18;63.89;100498.16;5000084;28;20312;-85
2022/02/11 09:45:48;;;;;;;15.00;6.90;;;;;;;9.55;64.64;100655.03;4999717;28;20034;-84
2022/02/11 09:48:13;;;;;;;16.48;7.07;;;;;;;8.85;65.38;100568.03;4999888;28;20398;-81
2022/02/11 09:50:39;;;;;;;13.32;6.03;;;;;;;8.89;65.92;100635.09;5015794;28;20030;-82
2022/02/11 09:53:06;;;;;;;12.38;6.85;;;;;;;8.62;66.89;100660.00;4999129;28;20034;-83
2022/02/11 09:55:35;;;;;;;11.70;8.25;;;;;;;8.14;67.52;100645.16;5014853;28;20091;-83
2022/02/11 09:58:01;;;;;;;14.52;8.05;;;;;;;7.58;68.85;100706.25;4998722;28;20513;-85
2022/02/11 10:00:27;;;;;;;;;;;;;;;7.71;69.39;100767.06;4999388;28;20052;-85
2022/02/11 10:02:55;;;;;;;;;;;;;;;6.65;69.76;100641.41;4999184;28;19917;-82
2022/02/11 10:05:25;;;;;;;23.05;7.45;;;;;;;6.04;72.94;100817.38;4997942;28;19913;-85
2022/02/11 10:07:51;;;;;;;21.95;8.90;;;;;;;5.57;74.71;100892.84;4998994;28;20061;-84
2022/02/11 10:10:38;;;;;;;19.67;8.43;;;;;;;5.69;76.14;101034.91;4997595;28;20240;-84
2022/02/11 10:13:08;;;;;;;17.70;7.70;;;;;;;6.88;76.92;101196.69;5013448;28;20049;-81
2022/02/11 10:15:37;;;;;;;17.13;8.25;;;;;;;8.07;74.40;101160.78;4996446;28;20663;-82
2022/02/11 10:18:07;;;;;;;14.35;7.25;;;;;;;8.20;72.39;101035.53;5013487;28;20021;-81
2022/02/11 10:20:42;;;;;;;17.52;6.53;;;;;;;8.37;71.36;100981.63;5012927;28;20045;-83
2022/02/11 10:23:25;;;;;;;12.20;7.07;;;;;;;7.68;70.82;100878.13;5013676;28;20045;-81
2022/02/11 10:26:05;;;;;;;17.00;6.47;;;;;;;7.78;71.67;100961.38;5013284;28;20040;-84
2022/02/11 10:28:35;;;;;;;20.58;7.25;;;;;;;7.65;71.01;100897.00;4996590;28;20475;-85
2022/02/11 10:31:29;;;;;;;13.40;7.05;;;;;;;7.96;72.25;101042.13;4997446;28;20029;-84
2022/02/11 10:34:08;;;;;;;14.75;6.75;;;;;;;8.38;71.92;101059.59;4996519;28;20549;-83
2022/02/11 10:36:48;;;;;;;18.63;7.03;;;;;;;8.22;70.33;100940.50;5013506;28;20041;-82
2022/02/11 10:39:26;;;;;;;13.65;6.90;;;;;;;8.79;70.18;101013.22;4996848;28;20040;-85
2022/02/11 10:42:02;;;;;;;14.27;6.65;;;;;;;9.32;68.38;100955.81;4997325;28;20045;-85
2022/02/11 10:44:30;;;;;;;12.00;6.90;;;;;;;9.48;66.90;100864.53;4997332;28;20135;-83
2022/02/11 10:47:00;;;;;;;11.75;5.82;;;;;;;9.66;66.76;100883.19;5000119;28;20025;-84
2022/02/11 10:49:50;;;;;;;15.10;6.55;;;;;;;9.58;65.36;100769.34;5017108;28;20529;-85
2022/02/11 10:52:18;;;;;;;14.27;5.88;;;;;;;10.14;64.91;100844.56;5022100;28;20053;-85
2022/02/11 10:54:45;;;;;;;15.93;7.50;;;;;;;10.04;63.91;100753.94;5000520;28;20021;-83
2022/02/11 10:57:14;;;;;;;12.15;6.22;;;;;;;9.61;64.38;100744.22;5001193;28;20096;-83
2022/02/11 10:59:44;;;;;;;15.68;6.90;;;;;;;8.82;65.20;100712.09;5001116;28;20067;-85
2022/02/11 11:02:16;;;;;;;18.90;7.07;;;;;;;10.00;64.97;100925.16;5017635;28;20096;-84
2022/02/11 11:04:42;;;;;;;25.30;6.93;;;;;;;9.05;65.18;100746.25;5001426;28;20455;-86
2022/02/11 11:07:08;;;;;;;23.38;8.23;;;;;;;8.59;66.62;100790.69;5002099;28;20021;-84
2022/02/11 11:09:35;;;;;;;18.00;7.43;;;;;;;8.60;68.23;100938.75;5002609;28;20100;-84
2022/02/11 11:12:02;;;;;;;17.52;7.30;;;;;;;8.31;67.95;100843.88;5019610;28;20033;-86
2022/02/11 11:14:28;;;;;;;18.05;6.65;;;;;;;8.56;68.64;101009.22;5003173;28;20025;-82
2022/02/11 11:16:58;;;;;;;15.63;6.65;;;;;;;8.04;69.13;100921.75;5037427;28;20048;-84
2022/02/11 11:19:25;;;;;;;15.82;7.40;;;;;;;7.01;70.92;100888.53;5003027;28;20045;-84
2022/02/11 11:22:11;;;;;;;19.88;8.23;;;;;;;6.58;72.95;101006.38;5003391;28;20021;-88
2022/02/11 11:24:42;;;;;;;20.70;8.07;;;;;;;6.68;75.39;101214.22;5002677;28;20036;-84
2022/02/11 11:27:07;;;;;;;18.98;8.45;;;;;;;7.21;75.58;101273.63;5036353;28;20129;-81
2022/02/11 11:29:33;;;;;;;17.93;7.53;;;;;;;7.79;73.85;101242.97;5002028;28;20067;-80
2022/02/11 11:32:00;;;;;;;16.13;6.80;;;;;;;7.79;73.21;101176.50;5004000;28;20045;-83
2022/02/11 11:34:29;;;;;;;15.63;7.05;;;;;;;7.84;73.17;101184.09;5018497;28;20033;-87
2022/02/11 11:37:04;;;;;;;17.80;7.90;;;;;;;7.15;73.67;101108.53;5018321;28;20124;-84
2022/02/11 11:39:29;;;;;;;19.48;7.20;;;;;;;7.13;75.05;101219.34;5002770;28;20037;-87
2022/02/11 11:42:07;;;;;;;22.17;8.65;;;;;;;6.91;75.60;101222.13;5022894;28;20109;-87
2022/02/11 11:44:53;;;;;;;20.40;6.80;;;;;;;6.59;76.60;101249.47;5005255;28;20037;-84
2022/02/11 11:47:43;;;;;;;18.92;6.88;;;;;;;6.53;77.51;101290.63;5004586;28;20044;-83
2022/02/11 11:50:18;;;;;;;20.38;7.70;;;;;;;6.18;77.86;101264.25;5014004;28;20041;-81
2022/02/11 11:52:46;;;;;;;13.93;6.60;;;;;;;6.12;78.97;101328.34;4997714;28;20075;-84
2022/02/11 11:55:18;;;;;;;25.77;7.85;;;;;;;5.76;79.72;101338.16;4997204;28;20018;-84
2022/02/11 11:57:44;;;;;;;18.05;5.65;;;;;;;5.56;80.86;101382.03;4995993;28;20518;-83
2022/02/11 12:00:09;;;;;;;28.37;8.27;;;;;;;5.68;81.93;101441.19;5014030;28;20025;-82
2022/02/11 12:02:38;;;;;;;30.67;6.93;;;;;;;5.56;82.25;101442.94;5031758;28;20051;-82
2022/02/11 12:05:04;;;;;;;20.40;6.57;;;;;;;5.31;83.36;101459.78;5013169;28;20025;-80
2022/02/11 12:07:30;;;;;;;;;;;;;;;4.74;85.18;101494.72;4997915;28;20037;-81
2022/02/11 12:09:58;;;;;;;16.08;5.40;;;;;;;4.39;86.62;101519.13;4997818;28;19913;-83
2022/02/11 12:12:29;;;;;;;19.88;5.22;;;;;;;3.99;88.67;101575.47;4997575;28;20021;-81
2022/02/11 12:15:06;;;;;;;8.15;4.00;;;;;;;3.78;90.22;101583.00;5013553;28;20029;-84
2022/02/11 12:17:32;;;;;;;10.68;2.67;;;;;;;3.58;92.03;101612.44;4997694;28;20094;-85
2022/02/11 12:19:58;;;;;;;9.57;2.78;;;;;;;3.48;92.74;101614.81;5013788;28;20068;-80
2022/02/11 12:22:26;;;;;;;3.78;1.67;;;;;;;3.46;93.37;101636.97;4997414;28;20553;-84
2022/02/11 12:27:40;;;;;;;7.70;1.50;;;;;;;3.41;94.70;101670.75;5013051;28;20132;-81
2022/02/11 12:30:22;;;;;;;2.95;1.23;;;;;;;3.39;94.63;101684.03;4997062;28;20026;-84
2022/02/11 12:32:57;;;;;;;3.83;0.85;;;;;;;3.10;94.18;101669.97;4996904;28;20041;-84
2022/02/11 12:35:30;;;;;;;1.33;0.80;;;;;;;3.02;94.02;101662.50;4996344;28;20069;-83
2022/02/11 12:37:59;;;;;;;2.60;1.00;;;;;;;3.06;93.94;101679.00;4996629;28;20521;-85
2022/02/11 12:40:28;;;;;;;5.32;0.88;;;;;;;2.95;93.74;101683.13;4996453;28;20017;-84
2022/02/11 12:43:00;;;;;;;6.15;0.90;;;;;;;2.77;93.31;101659.63;4996618;28;20041;-84
2022/02/11 12:45:32;;;;;;;4.80;1.63;;;;;;;2.87;93.05;101673.94;4996143;28;20116;-84
2022/02/11 12:47:59;;;;;;;6.78;1.42;;;;;;;2.87;92.60;101680.06;5013091;28;20100;-84
2022/02/11 12:50:36;;;;;;;6.72;1.13;;;;;;;2.78;92.04;101662.13;4996713;28;20025;-84
2022/02/11 12:53:04;;;;;;;5.68;0.98;;;;;;;2.81;91.54;101661.09;5021288;23;20048;-79
2022/02/11 12:55:32;;;;;;;7.10;1.50;;;;;;;2.89;91.12;101665.00;5052792;28;20044;-80
2022/02/11 12:58:01;;;;;;;5.65;1.10;;;;;;;2.77;90.57;101642.00;5036602;28;20028;-80
2022/02/11 13:00:35;;;;;;;6.95;1.52;;;;;;;2.89;90.30;101661.53;5055280;28;20055;-79
2022/02/11 13:03:02;;;;;;;4.18;1.02;;;;;;;2.73;89.43;101628.13;5056097;28;20562;-81
2022/02/11 13:05:33;;;;;;;7.82;1.33;;;;;;;2.87;88.84;101631.75;5069429;28;20852;-81
2022/02/11 13:08:01;;;;;;;4.93;1.23;;;;;;;2.94;88.20;101623.38;5052730;28;20045;-80
2022/02/11 13:10:31;;;;;;;3.63;1.15;;;;;;;2.94;87.94;101604.91;5052605;28;20400;-79
2022/02/11 13:13:15;;;;;;;9.35;1.38;;;;;;;3.03;87.49;101626.41;5070625;28;20043;-80
2022/02/11 13:15:44;;;;;;;9.75;2.50;;;;;;;3.15;87.51;101625.66;5051817;28;20028;-80
2022/02/11 13:18:13;;;;;;;7.90;1.15;;;;;;;3.24;87.05;101614.56;5035478;28;20068;-81
2022/02/11 13:20:41;;;;;;;6.82;1.38;;;;;;;3.52;86.46;101623.41;5052242;28;20036;-80
2022/02/11 13:23:12;;;;;;;6.72;1.70;;;;;;;3.88;86.00;101638.72;5069466;28;20020;-81
2022/02/11 13:25:39;;;;;;;6.97;2.45;;;;;;;3.82;84.70;101586.31;5072468;28;20086;-82
2022/02/11 13:28:16;;;;;;;13.18;1.77;;;;;;;3.72;83.96;101546.44;5089887;28;20031;-80
2022/02/11 13:30:46;;;;;;;4.15;1.33;;;;;;;4.56;83.18;101619.31;5074207;28;20032;-81
2022/02/11 13:33:27;;;;;;;8.77;1.42;;;;;;;4.64;80.10;101483.94;5039505;28;20523;-80
2022/02/11 13:35:54;;;;;;;11.18;2.38;;;;;;;4.70;79.84;101491.44;5066912;28;20484;-81
2022/02/11 13:38:29;;;;;;;7.50;1.65;;;;;;;5.03;78.38;101484.72;5053279;28;20041;-82
2022/02/11 13:40:57;;;;;;;6.68;1.30;;;;;;;5.07;77.01;101420.88;5053507;28;20143;-81
2022/02/11 13:43:23;;;;;;;6.88;1.65;;;;;;;5.20;75.83;101367.06;5053892;28;20017;-82
2022/02/11 13:46:02;;;;;;;3.90;1.42;;;;;;;5.83;74.94;101428.59;5070962;28;20036;-81
2022/02/11 13:48:29;;;;;;;5.10;1.00;;;;;;;6.37;72.58;101343.19;5070934;28;20044;-82
2022/02/11 13:51:13;;;;;;;8.57;1.25;;;;;;;6.04;71.04;101214.97;5053412;28;20576;-80
2022/02/11 13:53:40;;;;;;;8.23;1.33;;;;;;;5.62;70.50;101184.69;5052025;28;20115;-81
2022/02/11 13:56:09;;;;;;;5.22;1.05;;;;;;;5.53;68.37;101060.94;5068702;28;20119;-79
2022/02/11 13:58:35;;;;;;;2.97;1.30;;;;;;;5.52;67.78;101065.38;5068769;28;20055;-79
2022/02/11 14:01:01;;;;;;;4.28;1.15;;;;;;;5.65;66.62;101021.06;5051816;28;20133;-80
2022/02/11 14:03:29;;;;;;;6.60;1.45;;;;;;;5.44;65.68;100983.91;5052155;28;20456;-80
2022/02/11 14:06:01;;;;;;;2.25;0.70;;;;;;;5.74;63.88;100945.31;5051886;28;20039;-79
2022/02/11 14:08:44;;;;;;;7.32;1.48;;;;;;;6.09;63.72;101002.53;5051953;28;20482;-78
2022/02/11 14:11:15;;;;;;;6.80;1.38;;;;;;;6.02;63.42;100961.63;5068492;28;20509;-78
2022/02/11 14:13:42;;;;;;;5.75;1.98;;;;;;;5.86;63.24;100930.19;5067831;28;20074;-80
2022/02/11 14:16:07;;;;;;;3.63;1.13;;;;;;;6.05;63.15;100983.38;5068238;28;20035;-79
2022/02/11 14:18:34;;;;;;;3.00;0.98;;;;;;;6.40;63.12;101063.63;5051506;28;20028;-80
2022/02/11 14:20:59;;;;;;;;;;;;;;;6.19;63.08;101029.97;5069589;28;20025;-79
2022/02/11 14:23:24;;;;;;;4.40;1.10;;;;;;;5.98;62.63;100933.69;5055612;28;19973;-79
2022/02/11 14:25:50;;;;;;;5.00;1.13;;;;;;;6.13;63.15;101033.09;5071527;28;20041;-79
2022/02/11 14:28:16;;;;;;;4.10;0.80;;;;;;;6.16;62.52;100990.47;5055014;28;20040;-78
2022/02/11 14:30:44;;;;;;;5.57;1.00;;;;;;;6.37;61.70;100987.81;5054917;28;20036;-78
2022/02/11 14:33:11;;;;;;;4.75;1.00;;;;;;;6.25;60.79;100875.69;5071529;28;20044;-78
2022/02/11 14:35:37;;;;;;;6.85;1.08;;;;;;;6.17;60.99;100877.28;5037861;28;20423;-79
2022/02/11 14:38:03;;;;;;;5.45;1.25;;;;;;;6.06;60.98;100910.00;5054845;28;20078;-79
2022/02/11 14:40:31;;;;;;;3.58;1.02;;;;;;;5.95;60.90;100863.22;5054843;28;20418;-78
2022/02/11 14:42:57;;;;;;;4.53;0.90;;;;;;;6.00;60.97;100924.63;5054433;28;20194;-78
2022/02/11 14:45:23;;;;;;;2.67;1.00;;;;;;;5.96;60.93;100898.50;5071105;28;20027;-79
2022/02/11 14:47:48;;;;;;;6.13;1.33;;;;;;;5.89;61.43;100888.38;5054683;28;20503;-79
2022/02/11 14:50:16;;;;;;;2.73;0.93;;;;;;;5.55;61.54;100857.72;5054257;28;20102;-78
2022/02/11 14:52:41;;;;;;;6.13;1.10;;;;;;;5.58;61.34;100884.81;5071207;28;20302;-79
2022/02/11 14:55:07;;;;;;;3.65;1.10;;;;;;;5.22;61.89;100880.69;5054174;28;20067;-78
2022/02/11 14:57:33;;;;;;;6.15;1.20;;;;;;;5.16;62.66;100944.72;5054210;28;20407;-79
2022/02/11 14:59:59;;;;;;;7.97;2.22;;;;;;;5.12;63.02;100972.41;5054181;28;20020;-78
2022/02/11 15:02:25;;;;;;;5.57;1.52;;;;;;;4.96;63.35;100980.69;5054287;28;20155;-78